Airfield and Fleet Status

Monday 24 June 2019

Webcam – SSW (hi-res timelapse)

Webcam SSWGround state:   good.

Two Seaters 

K-21 – KFY
K-21 – HTV New panel Mics fitted. Request feedback.
Perkoz – PZ
Puchacz – JEC
Falke G-BODU
  (✔ = Serviceable)

Webcam – WSW (hi-res timelapse)

Webcam WSWPictures last updated: Today at 10:04

Single Seaters 

Junior – HEK
Junior – HDU
ASW24 – FLY
Pegasus – FVV
Discus WL – DM
ASW19 – CU

Weather – at Cambridge Airport (EGSC)

Valid: Today at 0820Z
Temp / Dewpoint: 23° / 18° C
Cloud:
Wind: Variable – 2 kt
Visibility: 9,000 m
24hr QNH trend: Surface Pressure Trend1014 hPa
(source: ADDS)
GRL weather station Local weather

Notes from the office

&nbsp

Winch

Skylaunch ‘S’ preferred winch to use “S”.
Skylaunch ‘T’ preferred winch to use “S”.

Tugs

Robin G-OCGC USE AS SECOND TUG PLEASE .
Robin G-ELSB PRIMARY TUG.

Cambridge METAR & TAF

Available data for EGSC from the past 2 hours
CAMBRIDGE
Metar
EGSC 240850Z VRB01KT 9000 NSC 24/18 Q1014

08:50 UTC

Wind: ° 1kt

Visibility: 9000 m

Sky:

Temp: 24 deg C / 75.2 deg F

Dewpoint: 18 deg C / 64.4 deg F

Pressure: 1014 hPa

TAF
TAF EGSC 240656Z 2406/2415 20008KT 8000 FEW045 BECMG 2407/2410 9999 PROB30 TEMPO 2410/2414 8000 SHRA

Stansted METAR & TAF

Available data for EGSS from the past 2 hours
STANSTED AIRPORT
Metar
EGSS 240850Z AUTO 16007KT 9999 NCD 23/19 Q1015

08:50 UTC

Wind: 160° 7kt

Visibility: 9999 m

Sky:

Temp: 23 deg C / 73.4 deg F

Dewpoint: 19 deg C / 66.2 deg F

Pressure: 1015 hPa

TAF
TAF EGSS 240459Z 2406/2512 11006KT 6000 FEW045 BECMG 2406/2409 9999 BECMG 2409/2412 26010KT PROB30 TEMPO 2409/2421 7000 SHRA BECMG 2412/2415 VRB03KT TEMPO 2421/2509 6000 RA SHRA PROB40 TEMPO 2423/2508 2000 +TSRA BKN004 BKN045CB BECMG 2503/2506 34010KT PROB30 TEMPO 2508/2511 BKN008

Live Gliding Map

This map is produced by the Open Glider Network